createdAt,value
2022-09-10T00:01:37.077Z,90.77
2022-09-10T00:04:11.306Z,90.86
2022-09-10T00:06:39.481Z,90.53
2022-09-10T00:09:08.587Z,91.81
2022-09-10T00:11:36.730Z,90.75
2022-09-10T00:14:07.860Z,91.54
2022-09-10T00:16:35.740Z,92.01
2022-09-10T00:19:03.431Z,91.51
2022-09-10T00:21:31.159Z,91.76
2022-09-10T00:23:59.053Z,92.18
2022-09-10T00:26:29.071Z,93.23
2022-09-10T00:28:58.184Z,91.61
2022-09-10T00:31:26.289Z,91.13
2022-09-10T00:33:54.146Z,91.07
2022-09-10T00:36:27.797Z,90.33
2022-09-10T00:38:58.227Z,90.43
2022-09-10T00:41:26.151Z,90.10
2022-09-10T00:44:05.223Z,91.79
2022-09-10T00:46:42.591Z,89.66
2022-09-10T00:49:16.939Z,89.33
2022-09-10T00:51:46.132Z,88.74
2022-09-10T00:54:17.387Z,88.40
2022-09-10T00:56:45.704Z,88.58
2022-09-10T00:59:14.839Z,91.47
2022-09-10T01:01:44.223Z,91.64
2022-09-10T01:04:12.222Z,91.73
2022-09-10T01:06:42.360Z,91.99
2022-09-10T01:09:10.274Z,92.07
2022-09-10T01:12:04.475Z,91.21
2022-09-10T01:14:45.715Z,91.47
2022-09-10T01:17:22.329Z,91.44
2022-09-10T01:20:13.584Z,92.16
2022-09-10T01:22:41.370Z,92.81
2022-09-10T01:25:33.387Z,92.07
2022-09-10T01:28:10.847Z,91.76
2022-09-10T01:30:47.114Z,92.92
2022-09-10T01:33:36.393Z,93.24
2022-09-10T01:36:09.903Z,90.83
2022-09-10T01:38:38.989Z,89.78
2022-09-10T01:41:06.624Z,89.69
2022-09-10T01:43:36.395Z,88.71
2022-09-10T01:46:34.036Z,89.61
2022-09-10T01:49:27.699Z,90.10
2022-09-10T01:52:08.154Z,90.93
2022-09-10T01:54:57.331Z,89.69
2022-09-10T01:57:43.687Z,88.92
2022-09-10T02:00:13.366Z,90.80
2022-09-10T02:03:07.444Z,90.56
2022-09-10T02:05:37.393Z,90.55
2022-09-10T02:08:12.589Z,92.15
2022-09-10T02:10:57.417Z,91.23
2022-09-10T02:13:27.882Z,92.24
2022-09-10T02:15:56.405Z,93.11
2022-09-10T02:18:25.433Z,92.33
2022-09-10T02:20:54.805Z,91.63
2022-09-10T02:23:26.688Z,91.62
2022-09-10T02:25:54.184Z,92.19
2022-09-10T02:28:25.783Z,91.38
2022-09-10T02:30:53.349Z,91.00
2022-09-10T02:33:20.890Z,91.33
2022-09-10T02:35:48.516Z,91.53
2022-09-10T02:38:16.319Z,90.80
2022-09-10T02:40:43.984Z,90.72
2022-09-10T02:43:16.384Z,91.21
2022-09-10T02:45:43.943Z,91.55
2022-09-10T02:48:11.999Z,90.81
2022-09-10T02:50:40.370Z,90.72
2022-09-10T02:53:07.695Z,90.42
2022-09-10T02:55:35.358Z,91.55
2022-09-10T02:58:02.812Z,91.75
2022-09-10T03:00:30.181Z,91.86
2022-09-10T03:03:02.802Z,92.30
2022-09-10T03:05:31.320Z,91.80
2022-09-10T03:07:59.640Z,92.03
2022-09-10T03:10:26.912Z,92.31
2022-09-10T03:12:54.330Z,92.02
2022-09-10T03:15:22.295Z,91.96
2022-09-10T03:17:50.177Z,92.25
2022-09-10T03:20:18.904Z,92.39
2022-09-10T03:22:46.735Z,93.06
2022-09-10T03:25:14.234Z,93.42
2022-09-10T03:27:41.512Z,92.41
2022-09-10T03:30:09.601Z,91.54
2022-09-10T03:32:37.050Z,93.23
2022-09-10T03:35:05.057Z,93.75
2022-09-10T03:37:32.941Z,93.47
2022-09-10T03:40:00.274Z,92.00
2022-09-10T03:42:27.818Z,89.78
2022-09-10T03:44:55.900Z,88.76
2022-09-10T03:47:23.449Z,87.89
2022-09-10T03:49:50.885Z,87.64
2022-09-10T03:52:20.366Z,86.58
2022-09-10T03:54:47.621Z,86.96
2022-09-10T03:57:15.190Z,86.27
2022-09-10T03:59:43.084Z,86.88
2022-09-10T04:02:10.975Z,87.01
2022-09-10T04:04:38.806Z,87.60
2022-09-10T04:07:12.553Z,87.80
2022-09-10T04:09:41.078Z,88.93
2022-09-10T04:12:08.505Z,89.30
2022-09-10T04:14:35.795Z,89.02
2022-09-10T04:17:03.479Z,89.48
2022-09-10T04:19:31.215Z,89.82
2022-09-10T04:21:59.081Z,89.92
2022-09-10T04:24:26.851Z,90.52
2022-09-10T04:26:54.124Z,91.06
2022-09-10T04:29:23.148Z,91.28
2022-09-10T04:31:50.924Z,91.68
2022-09-10T04:34:18.541Z,91.59
2022-09-10T04:36:45.777Z,91.09
2022-09-10T04:39:13.796Z,91.37
2022-09-10T04:41:41.302Z,91.78
2022-09-10T04:44:09.365Z,93.82
2022-09-10T04:46:36.923Z,93.62
2022-09-10T04:49:05.270Z,93.12
2022-09-10T04:51:32.569Z,93.07
2022-09-10T04:54:00.196Z,92.88
2022-09-10T04:56:29.283Z,91.82
2022-09-10T04:58:56.780Z,90.88
2022-09-10T05:01:27.663Z,90.56
2022-09-10T05:03:57.985Z,90.58
2022-09-10T05:06:25.775Z,91.23
2022-09-10T05:08:55.374Z,90.69
2022-09-10T05:11:22.658Z,91.07
2022-09-10T05:13:50.315Z,89.12
2022-09-10T05:16:21.503Z,89.31
2022-09-10T05:18:52.099Z,89.74
2022-09-10T05:21:20.589Z,88.72
2022-09-10T05:23:48.165Z,88.22
2022-09-10T05:26:15.731Z,87.86
2022-09-10T05:28:43.466Z,86.28
2022-09-10T05:31:11.558Z,84.79
2022-09-10T05:33:39.023Z,84.07
2022-09-10T05:36:07.881Z,84.11
2022-09-10T05:38:39.832Z,84.10
2022-09-10T05:41:10.975Z,84.51
2022-09-10T05:43:38.925Z,84.11
2022-09-10T05:46:06.240Z,83.62
2022-09-10T05:48:33.952Z,83.48
2022-09-10T05:51:01.447Z,84.52
2022-09-10T05:53:28.706Z,82.63
2022-09-10T05:55:56.276Z,82.91
2022-09-10T05:58:23.736Z,82.10
2022-09-10T06:00:51.475Z,83.18
2022-09-10T06:03:19.552Z,82.82
2022-09-10T06:05:51.260Z,81.79
2022-09-10T06:08:23.261Z,82.70
2022-09-10T06:10:58.617Z,82.30
2022-09-10T06:13:27.037Z,82.27
2022-09-10T06:15:56.010Z,81.77
2022-09-10T06:18:23.743Z,80.10
2022-09-10T06:21:05.040Z,80.34
2022-09-10T06:23:35.057Z,80.08
2022-09-10T06:26:05.214Z,80.75
2022-09-10T06:28:33.197Z,81.56
2022-09-10T06:31:01.546Z,81.06
2022-09-10T06:33:30.783Z,80.67
2022-09-10T06:36:00.326Z,80.65
2022-09-10T06:38:30.179Z,81.38
2022-09-10T06:41:02.119Z,81.21
2022-09-10T06:43:32.906Z,81.76
2022-09-10T06:46:56.690Z,80.94
2022-09-10T06:49:28.589Z,80.55
2022-09-10T06:52:16.574Z,81.83
2022-09-10T06:55:06.790Z,81.55
2022-09-10T06:57:55.020Z,79.00
2022-09-10T07:00:42.764Z,78.48
2022-09-10T07:03:10.393Z,78.31
2022-09-10T07:05:37.665Z,79.29
2022-09-10T07:08:04.927Z,78.05
2022-09-10T07:10:32.863Z,78.79
2022-09-10T07:13:00.230Z,77.36
2022-09-10T07:15:28.379Z,76.11
2022-09-10T07:17:59.243Z,75.73
2022-09-10T07:20:27.094Z,75.27
2022-09-10T07:22:56.327Z,74.92
2022-09-10T07:25:47.624Z,75.49
2022-09-10T07:28:17.858Z,74.70
2022-09-10T07:30:46.044Z,74.15
2022-09-10T07:33:13.589Z,73.91
2022-09-10T07:35:41.198Z,73.37
2022-09-10T07:38:12.745Z,73.56
2022-09-10T07:40:40.360Z,72.34
2022-09-10T07:43:07.749Z,73.56
2022-09-10T07:45:35.725Z,73.11
2022-09-10T07:48:22.610Z,73.24
2022-09-10T07:51:10.646Z,73.28
2022-09-10T07:53:59.640Z,73.00
2022-09-10T07:56:48.723Z,71.91
2022-09-10T07:59:36.441Z,72.42
2022-09-10T08:02:24.838Z,73.07
2022-09-10T08:05:14.025Z,72.51
2022-09-10T08:08:01.828Z,73.59
2022-09-10T08:10:49.992Z,72.83
2022-09-10T08:13:39.742Z,73.00
2022-09-10T08:16:29.732Z,73.11
2022-09-10T08:19:17.605Z,73.42
2022-09-10T08:22:07.424Z,74.36
2022-09-10T08:24:58.705Z,75.20
2022-09-10T08:27:26.797Z,76.74
2022-09-10T08:29:54.353Z,78.21
2022-09-10T08:32:21.957Z,80.37
2022-09-10T08:34:49.520Z,81.88
2022-09-10T08:37:17.660Z,83.31
2022-09-10T08:39:44.999Z,84.19
2022-09-10T08:42:22.092Z,84.75
2022-09-10T08:44:53.682Z,84.88
2022-09-10T08:47:46.061Z,84.51
2022-09-10T08:50:35.181Z,85.21
2022-09-10T08:53:18.175Z,84.64
2022-09-10T08:55:48.816Z,85.25
2022-09-10T08:58:20.643Z,83.82
2022-09-10T09:00:53.729Z,86.01
2022-09-10T09:03:25.600Z,83.83
2022-09-10T09:06:02.058Z,82.60
2022-09-10T09:08:45.719Z,82.29
2022-09-10T09:11:34.017Z,81.35
2022-09-10T09:14:24.936Z,81.56
2022-09-10T09:17:03.384Z,81.32
2022-09-10T09:19:44.400Z,80.63
2022-09-10T09:22:18.911Z,81.28
2022-09-10T09:24:58.468Z,78.79
2022-09-10T09:27:36.563Z,79.40
2022-09-10T09:30:16.090Z,76.99
2022-09-10T09:32:44.292Z,77.79
2022-09-10T09:35:34.937Z,76.37
2022-09-10T09:38:22.017Z,74.95
2022-09-10T09:41:01.350Z,75.02
2022-09-10T09:43:51.574Z,72.71
2022-09-10T09:46:22.969Z,71.47
2022-09-10T09:48:52.041Z,69.84
2022-09-10T09:51:20.866Z,68.82
2022-09-10T09:54:01.015Z,68.12
2022-09-10T09:56:41.717Z,66.28
2022-09-10T09:59:14.767Z,65.23
2022-09-10T10:01:42.855Z,64.78
2022-09-10T10:04:22.080Z,63.46
2022-09-10T10:06:58.187Z,62.77
2022-09-10T10:09:30.485Z,61.76
2022-09-10T10:12:02.851Z,61.84
2022-09-10T10:14:32.258Z,60.16
2022-09-10T10:17:01.062Z,60.27
2022-09-10T10:19:37.101Z,59.26
2022-09-10T10:22:15.410Z,59.37
2022-09-10T10:24:43.275Z,56.50
2022-09-10T10:27:20.038Z,57.02
2022-09-10T10:29:55.659Z,54.08
2022-09-10T10:32:34.177Z,54.16
2022-09-10T10:35:20.240Z,55.76
2022-09-10T10:37:56.787Z,53.15
2022-09-10T10:40:26.243Z,52.84
2022-09-10T10:43:21.692Z,52.24
2022-09-10T10:46:11.217Z,52.83
2022-09-10T10:48:45.202Z,52.67
2022-09-10T10:51:31.490Z,53.61
2022-09-10T10:54:24.304Z,52.99
2022-09-10T10:56:58.373Z,53.83
2022-09-10T11:00:05.673Z,54.19
2022-09-10T11:03:03.645Z,52.64
2022-09-10T11:05:46.739Z,51.28
2022-09-10T11:08:18.764Z,50.61
2022-09-10T11:10:59.382Z,49.74
2022-09-10T11:13:31.598Z,48.57
2022-09-10T11:16:08.797Z,46.58
2022-09-10T11:18:47.481Z,47.68
2022-09-10T11:21:30.217Z,46.71
2022-09-10T11:24:17.308Z,47.98
2022-09-10T11:27:03.282Z,46.70
2022-09-10T11:29:56.673Z,46.91
2022-09-10T11:32:40.463Z,45.65
2022-09-10T11:35:21.589Z,46.45
2022-09-10T11:38:24.306Z,45.26
2022-09-10T11:41:10.268Z,43.16
2022-09-10T11:43:54.535Z,42.32
2022-09-10T11:46:30.638Z,41.82
2022-09-10T11:49:58.874Z,43.26
2022-09-10T11:52:28.233Z,41.52
2022-09-10T11:54:58.068Z,41.63
2022-09-10T11:57:59.901Z,40.21
2022-09-10T12:00:34.844Z,39.82
2022-09-10T12:03:17.915Z,40.56
2022-09-10T12:05:54.469Z,42.35
2022-09-10T12:08:54.119Z,42.65
2022-09-10T12:11:35.198Z,43.35
2022-09-10T12:14:14.888Z,44.48
2022-09-10T12:16:49.239Z,44.63
2022-09-10T12:19:26.097Z,42.38
2022-09-10T12:22:06.857Z,40.69
2022-09-10T12:24:37.287Z,41.83
2022-09-10T12:27:07.546Z,41.45
2022-09-10T12:29:37.460Z,42.32
2022-09-10T12:32:07.802Z,42.80
2022-09-10T12:34:37.127Z,43.05
2022-09-10T12:37:04.320Z,43.19
2022-09-10T12:39:32.249Z,42.62
2022-09-10T12:42:26.140Z,42.56
2022-09-10T12:44:57.556Z,42.64
2022-09-10T12:47:41.593Z,41.13
2022-09-10T12:50:36.757Z,42.17
2022-09-10T12:53:47.139Z,41.57
2022-09-10T12:56:49.807Z,43.75
2022-09-10T12:59:52.559Z,42.03
2022-09-10T13:02:27.204Z,42.96
2022-09-10T13:05:30.261Z,41.17
2022-09-10T13:08:03.353Z,42.11
2022-09-10T13:10:31.239Z,42.52
2022-09-10T13:13:02.263Z,41.13
2022-09-10T13:15:33.830Z,41.49
2022-09-10T13:18:01.510Z,41.35
2022-09-10T13:20:31.587Z,39.08
2022-09-10T13:22:59.768Z,38.69
2022-09-10T13:25:47.976Z,39.33
2022-09-10T13:28:29.712Z,37.99
2022-09-10T13:31:11.060Z,37.76
2022-09-10T13:33:50.921Z,39.04
2022-09-10T13:36:30.598Z,39.06
2022-09-10T13:39:20.577Z,38.79
2022-09-10T13:41:57.149Z,39.02
2022-09-10T13:44:42.970Z,39.66
2022-09-10T13:47:16.485Z,38.91
2022-09-10T13:49:52.391Z,38.31
2022-09-10T13:52:43.414Z,38.79
2022-09-10T13:55:18.310Z,40.49
2022-09-10T13:57:48.870Z,40.85
2022-09-10T14:00:49.218Z,40.56
2022-09-10T14:03:22.630Z,39.49
2022-09-10T14:05:53.517Z,39.08
2022-09-10T14:08:30.063Z,39.18
2022-09-10T14:11:01.273Z,40.25
2022-09-10T14:13:37.631Z,40.21
2022-09-10T14:16:15.929Z,39.95
2022-09-10T14:18:49.902Z,40.73
2022-09-10T14:21:20.517Z,40.40
2022-09-10T14:23:51.696Z,41.02
2022-09-10T14:26:22.222Z,40.88
2022-09-10T14:29:01.104Z,39.91
2022-09-10T14:31:39.714Z,40.84
2022-09-10T14:34:32.375Z,39.97
2022-09-10T14:37:22.309Z,39.72
2022-09-10T14:39:53.327Z,40.04
2022-09-10T14:42:26.047Z,37.57
2022-09-10T14:44:54.273Z,38.20
2022-09-10T14:47:33.411Z,37.82
2022-09-10T14:50:26.874Z,37.62
2022-09-10T14:53:00.181Z,38.49
2022-09-10T14:55:32.499Z,37.64
2022-09-10T14:58:04.215Z,37.57
2022-09-10T15:00:34.189Z,38.89
2022-09-10T15:03:01.622Z,38.13
2022-09-10T15:05:28.852Z,37.05
2022-09-10T15:07:56.687Z,37.64
2022-09-10T15:10:26.855Z,38.12
2022-09-10T15:12:54.253Z,38.94
2022-09-10T15:15:22.051Z,39.28
2022-09-10T15:17:57.889Z,39.33
2022-09-10T15:20:28.435Z,40.60
2022-09-10T15:23:01.714Z,39.39
2022-09-10T15:25:38.157Z,40.21
2022-09-10T15:28:06.455Z,39.52
2022-09-10T15:30:34.332Z,39.41
2022-09-10T15:33:06.349Z,38.68
2022-09-10T15:35:33.873Z,38.84
2022-09-10T15:38:01.127Z,39.16
2022-09-10T15:40:28.499Z,39.18
2022-09-10T15:42:56.028Z,39.02
2022-09-10T15:45:23.725Z,39.50
2022-09-10T15:47:51.156Z,40.40
2022-09-10T15:50:18.893Z,39.74
2022-09-10T15:52:48.506Z,39.93
2022-09-10T15:55:16.066Z,40.20
2022-09-10T15:57:44.238Z,41.16
2022-09-10T16:00:11.919Z,40.89
2022-09-10T16:02:39.477Z,41.28
2022-09-10T16:05:07.033Z,41.70
2022-09-10T16:07:34.269Z,41.27
2022-09-10T16:10:02.062Z,42.14
2022-09-10T16:12:29.290Z,42.10
2022-09-10T16:14:56.469Z,42.34
2022-09-10T16:17:23.973Z,42.53
2022-09-10T16:19:51.183Z,42.00
2022-09-10T16:22:20.932Z,42.08
2022-09-10T16:24:48.739Z,42.82
2022-09-10T16:27:16.199Z,42.25
2022-09-10T16:29:43.637Z,43.36
2022-09-10T16:32:11.188Z,43.39
2022-09-10T16:34:40.728Z,43.65
2022-09-10T16:37:12.163Z,43.91
2022-09-10T16:39:40.416Z,43.85
2022-09-10T16:42:07.934Z,44.82
2022-09-10T16:44:35.569Z,45.25
2022-09-10T16:47:03.331Z,44.81
2022-09-10T16:49:33.531Z,45.25
2022-09-10T16:52:04.053Z,45.42
2022-09-10T16:54:31.869Z,45.92
2022-09-10T16:56:59.294Z,45.37
2022-09-10T16:59:26.647Z,45.29
2022-09-10T17:01:54.585Z,45.53
2022-09-10T17:04:28.634Z,46.24
2022-09-10T17:06:57.279Z,46.28
2022-09-10T17:09:25.109Z,46.46
2022-09-10T17:11:52.441Z,46.62
2022-09-10T17:14:23.404Z,47.00
2022-09-10T17:16:50.621Z,47.12
2022-09-10T17:19:20.726Z,47.84
2022-09-10T17:21:48.707Z,47.55
2022-09-10T17:24:15.852Z,48.39
2022-09-10T17:26:43.084Z,47.85
2022-09-10T17:29:15.856Z,49.83
2022-09-10T17:31:44.203Z,49.37
2022-09-10T17:34:12.338Z,49.95
2022-09-10T17:36:41.068Z,49.53
2022-09-10T17:39:08.525Z,49.84
2022-09-10T17:41:39.519Z,49.01
2022-09-10T17:44:09.708Z,49.25
2022-09-10T17:46:37.481Z,47.43
2022-09-10T17:49:05.115Z,47.06
2022-09-10T17:51:33.999Z,46.18
2022-09-10T17:54:01.894Z,46.06
2022-09-10T17:56:29.723Z,46.25
2022-09-10T17:59:04.392Z,47.24
2022-09-10T18:01:34.499Z,46.90
2022-09-10T18:04:02.330Z,46.49
2022-09-10T18:06:29.703Z,46.59
2022-09-10T18:08:58.013Z,46.53
2022-09-10T18:11:31.157Z,46.27
2022-09-10T18:13:59.296Z,47.41
2022-09-10T18:16:29.931Z,48.43
2022-09-10T18:18:59.490Z,48.66
2022-09-10T18:21:29.698Z,48.98
2022-09-10T18:24:04.182Z,50.03
2022-09-10T18:26:37.131Z,49.77
2022-09-10T18:29:14.514Z,50.01
2022-09-10T18:31:48.926Z,50.80
2022-09-10T18:34:22.597Z,51.48
2022-09-10T18:36:55.309Z,51.80
2022-09-10T18:39:23.759Z,51.68
2022-09-10T18:41:51.852Z,52.21
2022-09-10T18:44:22.017Z,53.05
2022-09-10T18:46:50.567Z,52.85
2022-09-10T18:49:21.379Z,53.55
2022-09-10T18:51:50.964Z,53.59
2022-09-10T18:54:19.741Z,53.75
2022-09-10T18:56:47.930Z,54.53
2022-09-10T18:59:19.804Z,54.74
2022-09-10T19:01:48.109Z,55.33
2022-09-10T19:04:18.089Z,55.25
2022-09-10T19:06:46.387Z,55.47
2022-09-10T19:09:19.241Z,55.21
2022-09-10T19:11:48.614Z,56.46
2022-09-10T19:14:27.488Z,56.73
2022-09-10T19:16:56.367Z,56.90
2022-09-10T19:19:26.367Z,57.18
2022-09-10T19:21:58.300Z,57.28
2022-09-10T19:24:50.870Z,58.35
2022-09-10T19:27:14.946Z,58.14
2022-09-10T19:29:42.541Z,59.90
2022-09-10T19:32:09.844Z,60.21
2022-09-10T19:34:37.245Z,60.42
2022-09-10T19:37:04.812Z,60.37
2022-09-10T19:39:32.103Z,59.93
2022-09-10T19:41:59.362Z,60.42
2022-09-10T19:44:26.940Z,59.69
2022-09-10T19:46:54.427Z,60.42
2022-09-10T19:49:21.652Z,61.08
2022-09-10T19:51:51.616Z,60.58
2022-09-10T19:54:18.842Z,60.43
2022-09-10T19:56:46.557Z,61.14
2022-09-10T19:59:14.369Z,61.83
2022-09-10T20:01:42.379Z,61.70
2022-09-10T20:04:11.218Z,62.41
2022-09-10T20:06:38.978Z,62.45
2022-09-10T20:09:07.575Z,63.30
2022-09-10T20:11:35.720Z,63.15
2022-09-10T20:14:06.499Z,63.13
2022-09-10T20:16:44.758Z,63.00
2022-09-10T20:19:17.009Z,63.97
2022-09-10T20:21:44.554Z,64.16
2022-09-10T20:24:12.079Z,64.60
2022-09-10T20:26:39.644Z,64.64
2022-09-10T20:29:18.565Z,64.75
2022-09-10T20:31:46.935Z,65.14
2022-09-10T20:34:20.004Z,65.25
2022-09-10T20:36:49.382Z,65.69
2022-09-10T20:39:19.660Z,65.59
2022-09-10T20:41:47.026Z,65.53
2022-09-10T20:44:16.487Z,66.18
2022-09-10T20:46:44.446Z,66.16
2022-09-10T20:49:13.074Z,66.36
2022-09-10T20:51:40.846Z,66.47
2022-09-10T20:54:11.306Z,67.12
2022-09-10T20:56:41.836Z,66.92
2022-09-10T20:59:11.927Z,66.89
2022-09-10T21:01:39.659Z,66.90
2022-09-10T21:04:07.305Z,66.94
2022-09-10T21:06:34.936Z,66.66
2022-09-10T21:09:03.682Z,66.50
2022-09-10T21:11:33.539Z,66.47
2022-09-10T21:14:02.546Z,66.63
2022-09-10T21:16:37.944Z,66.45
2022-09-10T21:19:08.783Z,66.52
2022-09-10T21:21:37.062Z,66.59
2022-09-10T21:24:12.726Z,66.69
2022-09-10T21:26:43.051Z,66.88
2022-09-10T21:29:13.308Z,67.11
2022-09-10T21:31:41.170Z,67.14
2022-09-10T21:34:08.796Z,67.10
2022-09-10T21:36:37.649Z,67.78
2022-09-10T21:39:07.625Z,67.54
2022-09-10T21:41:41.022Z,68.01
2022-09-10T21:44:12.054Z,68.01
2022-09-10T21:46:56.546Z,68.63
2022-09-10T21:49:27.170Z,68.84
2022-09-10T21:51:55.627Z,68.80
2022-09-10T21:54:23.018Z,68.85
2022-09-10T21:56:51.691Z,67.52
2022-09-10T21:59:20.617Z,69.36
2022-09-10T22:01:48.832Z,70.21
2022-09-10T22:04:21.483Z,70.30
2022-09-10T22:06:50.113Z,70.13
2022-09-10T22:09:19.930Z,69.63
2022-09-10T22:11:49.116Z,70.56
2022-09-10T22:14:18.918Z,71.32
2022-09-10T22:16:46.690Z,71.36
2022-09-10T22:19:24.938Z,71.35
2022-09-10T22:21:53.922Z,71.49
2022-09-10T22:24:21.170Z,70.85
2022-09-10T22:26:48.608Z,72.02
2022-09-10T22:29:18.704Z,71.68
2022-09-10T22:31:48.118Z,71.23
2022-09-10T22:34:17.049Z,71.74
2022-09-10T22:36:45.564Z,72.26
2022-09-10T22:39:17.724Z,72.31
2022-09-10T22:41:45.435Z,72.17
2022-09-10T22:44:12.974Z,72.42
2022-09-10T22:46:40.674Z,72.61
2022-09-10T22:49:08.569Z,72.55
2022-09-10T22:51:38.633Z,72.55
2022-09-10T22:54:06.324Z,72.43
2022-09-10T22:56:34.442Z,72.35
2022-09-10T22:59:05.572Z,72.24
2022-09-10T23:01:54.521Z,72.73
2022-09-10T23:04:22.611Z,72.56
2022-09-10T23:06:50.016Z,72.56
2022-09-10T23:09:17.523Z,72.87
2022-09-10T23:11:45.557Z,72.80
2022-09-10T23:14:16.929Z,72.93
2022-09-10T23:16:46.472Z,72.63
2022-09-10T23:19:19.469Z,73.36
2022-09-10T23:21:54.554Z,73.43
2022-09-10T23:24:24.502Z,73.42
2022-09-10T23:26:52.516Z,73.63
2022-09-10T23:29:19.860Z,74.21
2022-09-10T23:31:47.210Z,73.90
2022-09-10T23:34:19.327Z,73.98
2022-09-10T23:36:47.885Z,74.85
2022-09-10T23:39:18.272Z,74.58
2022-09-10T23:41:46.502Z,74.62
2022-09-10T23:44:13.828Z,74.72
2022-09-10T23:46:41.735Z,74.89
2022-09-10T23:49:09.165Z,75.15
2022-09-10T23:51:36.887Z,75.21
2022-09-10T23:54:04.754Z,75.15
2022-09-10T23:56:32.165Z,75.44
2022-09-10T23:58:59.622Z,75.72
